Time;durP1;ratioP1;P1;durP2;ratioP2;P2;SDS_P1;SDS_P2;PMS_P1;PMS_P2;Temp;Humidity;BMP_temperature;BMP_pressure;BME280_temperature;BME280_humidity;BME280_pressure;Samples;Min_cycle;Max_cycle;Signal;HPM_P1;HPM_P2
2021/07/24 00:02:19;;;;;;;17.25;11.13;;;;;;;17.22;82.29;98397.53;5054469;28;20110;-77
2021/07/24 00:04:46;;;;;;;15.70;9.25;;;;;;;17.34;82.37;98412.03;5057276;28;20095;-77
2021/07/24 00:07:13;;;;;;;15.52;8.85;;;;;;;17.25;83.10;98413.53;5062740;28;20053;-77
2021/07/24 00:09:40;;;;;;;16.02;10.38;;;;;;;17.48;82.02;98409.84;5060384;28;20099;-77
2021/07/24 00:12:12;;;;;;;14.65;9.43;;;;;;;17.46;81.66;98398.25;5061827;28;20057;-77
2021/07/24 00:14:39;;;;;;;14.50;9.10;;;;;;;17.35;82.04;98372.50;5060779;28;20508;-77
2021/07/24 00:17:06;;;;;;;18.50;9.98;;;;;;;17.24;82.67;98367.94;5054273;28;20492;-77
2021/07/24 00:19:32;;;;;;;14.98;10.00;;;;;;;17.39;81.75;98383.81;5057375;28;20043;-77
2021/07/24 00:21:59;;;;;;;13.45;9.75;;;;;;;17.21;82.02;98361.00;5071138;28;20055;-77
2021/07/24 00:24:26;;;;;;;18.38;9.95;;;;;;;17.12;82.17;98352.34;5060220;28;20049;-77
2021/07/24 00:26:53;;;;;;;12.10;8.82;;;;;;;17.09;82.64;98357.50;5064801;28;20053;-77
2021/07/24 00:29:21;;;;;;;17.58;9.20;;;;;;;17.06;83.01;98371.75;5066695;28;20454;-77
2021/07/24 00:31:47;;;;;;;15.70;10.20;;;;;;;17.06;82.71;98377.22;5058991;28;20118;-77
2021/07/24 00:34:17;;;;;;;17.30;9.63;;;;;;;17.17;82.77;98365.34;5059694;28;20111;-77
2021/07/24 00:36:44;;;;;;;16.70;9.65;;;;;;;17.24;82.50;98371.50;5056120;28;20059;-77
2021/07/24 00:39:11;;;;;;;17.10;10.63;;;;;;;17.21;83.12;98363.75;5065051;28;20044;-77
2021/07/24 00:41:41;;;;;;;12.93;9.65;;;;;;;17.25;83.07;98378.69;5065565;28;20113;-77
2021/07/24 00:44:10;;;;;;;14.15;9.27;;;;;;;17.20;82.79;98366.75;5065399;28;20134;-77
2021/07/24 00:46:39;;;;;;;16.17;9.60;;;;;;;17.20;83.04;98370.34;5071286;28;20442;-77
2021/07/24 00:49:08;;;;;;;16.25;11.30;;;;;;;17.28;82.50;98369.09;5061089;28;20044;-77
2021/07/24 00:51:35;;;;;;;15.38;10.02;;;;;;;17.27;82.99;98373.75;5063941;28;20128;-77
2021/07/24 00:54:02;;;;;;;14.52;9.63;;;;;;;17.29;82.96;98377.06;5061622;28;20049;-77
2021/07/24 00:56:30;;;;;;;14.82;10.00;;;;;;;16.92;84.72;98372.03;5056708;28;20106;-77
2021/07/24 00:58:57;;;;;;;18.88;9.77;;;;;;;16.99;84.89;98371.88;5064082;28;20041;-77
2021/07/24 01:01:25;;;;;;;16.95;9.90;;;;;;;16.92;84.57;98365.69;5055178;28;20056;-77
2021/07/24 01:03:53;;;;;;;17.30;9.25;;;;;;;16.87;85.20;98369.16;5065472;28;20044;-77
2021/07/24 01:06:20;;;;;;;16.50;9.45;;;;;;;17.05;84.39;98367.31;5054631;28;20269;-77
2021/07/24 01:08:48;;;;;;;16.15;9.68;;;;;;;16.97;85.12;98376.78;5064559;28;20072;-77
2021/07/24 01:11:16;;;;;;;15.38;9.32;;;;;;;16.78;85.36;98354.97;5058646;28;20064;-77
2021/07/24 01:13:44;;;;;;;16.55;9.75;;;;;;;16.88;85.10;98343.41;5064143;28;20052;-77
2021/07/24 01:16:12;;;;;;;15.88;9.70;;;;;;;17.03;84.86;98361.25;5068696;28;20048;-77
2021/07/24 01:18:39;;;;;;;17.85;10.73;;;;;;;16.70;85.57;98338.91;5066344;28;20511;-77
2021/07/24 01:21:10;;;;;;;15.27;9.85;;;;;;;16.85;85.16;98345.78;5063993;28;20516;-77
2021/07/24 01:23:39;;;;;;;15.10;10.25;;;;;;;16.70;85.31;98327.13;5071989;28;20048;-77
2021/07/24 01:26:06;;;;;;;21.30;10.48;;;;;;;16.88;84.79;98332.41;5058440;28;20052;-77
2021/07/24 01:28:35;;;;;;;18.23;10.30;;;;;;;16.72;84.82;98317.53;5071095;28;20122;-77
2021/07/24 01:31:04;;;;;;;15.27;10.07;;;;;;;16.74;84.88;98320.03;5053104;28;20126;-77
2021/07/24 01:33:34;;;;;;;19.17;10.27;;;;;;;16.84;84.40;98325.72;5052348;28;20126;-77
2021/07/24 01:36:01;;;;;;;14.57;10.63;;;;;;;16.90;84.16;98337.66;5052605;28;20135;-77
2021/07/24 01:38:30;;;;;;;16.30;9.82;;;;;;;16.69;84.74;98319.94;5052301;28;20115;-77
2021/07/24 01:40:59;;;;;;;17.35;10.48;;;;;;;16.82;84.90;98347.09;5052334;28;20463;-77
2021/07/24 01:43:25;;;;;;;17.20;10.38;;;;;;;16.85;83.79;98332.06;5052970;28;20099;-78
2021/07/24 01:45:52;;;;;;;17.88;10.63;;;;;;;16.78;84.66;98338.50;5067372;28;20048;-77
2021/07/24 01:48:30;;;;;;;15.68;10.45;;;;;;;16.79;84.62;98358.56;5053341;28;20076;-76
2021/07/24 01:53:41;;;;;;;15.65;10.93;;;;;;;16.64;84.47;98348.13;5055987;28;20060;-77
2021/07/24 01:56:11;;;;;;;17.35;10.73;;;;;;;16.59;84.79;98357.09;5066954;28;20462;-77
2021/07/24 01:58:38;;;;;;;16.13;10.50;;;;;;;16.66;84.65;98383.56;5069996;28;20241;-77
2021/07/24 02:01:06;;;;;;;14.95;10.25;;;;;;;16.60;84.62;98374.38;5056768;28;20053;-76
2021/07/24 02:03:37;;;;;;;14.27;9.95;;;;;;;16.31;85.77;98366.09;5059881;28;20052;-79
2021/07/24 02:06:05;;;;;;;17.13;10.85;;;;;;;16.45;85.98;98394.09;5068649;28;20109;-76
2021/07/24 02:08:34;;;;;;;24.00;11.23;;;;;;;16.33;86.63;98390.56;5066965;28;20103;-76
2021/07/24 02:11:04;;;;;;;21.17;10.35;;;;;;;16.26;85.68;98385.22;5071337;28;20489;-76
2021/07/24 02:13:32;;;;;;;16.38;9.70;;;;;;;16.48;85.82;98387.31;5054637;28;20107;-76
2021/07/24 02:15:59;;;;;;;15.05;9.45;;;;;;;16.37;86.45;98391.75;5068988;28;20407;-77
2021/07/24 02:18:26;;;;;;;15.52;10.55;;;;;;;16.36;86.40;98390.06;5068077;28;20107;-76
2021/07/24 02:20:54;;;;;;;14.90;10.25;;;;;;;16.17;87.07;98387.47;5053860;28;20072;-76
2021/07/24 02:23:21;;;;;;;16.73;10.35;;;;;;;16.06;87.38;98367.22;5052868;28;20053;-76
2021/07/24 02:25:48;;;;;;;14.75;10.63;;;;;;;16.32;86.25;98380.66;5061380;28;20053;-76
2021/07/24 02:28:15;;;;;;;16.95;10.10;;;;;;;16.21;86.50;98364.00;5063115;28;20503;-76
2021/07/24 02:30:43;;;;;;;15.65;10.15;;;;;;;16.18;86.26;98364.44;5057752;28;20049;-76
2021/07/24 02:33:11;;;;;;;19.38;10.27;;;;;;;16.26;85.79;98364.09;5052589;28;20056;-77
2021/07/24 02:35:38;;;;;;;16.90;10.73;;;;;;;16.37;85.20;98367.06;5056910;28;20049;-77
2021/07/24 02:38:05;;;;;;;19.05;10.85;;;;;;;16.51;85.61;98381.31;5059355;28;20048;-77
2021/07/24 02:40:32;;;;;;;14.68;10.23;;;;;;;16.51;85.59;98364.88;5061620;28;20041;-77
2021/07/24 02:42:59;;;;;;;18.88;10.00;;;;;;;16.32;86.20;98367.78;5063149;28;20130;-76
2021/07/24 02:45:26;;;;;;;15.02;10.05;;;;;;;16.37;86.02;98364.31;5063187;28;20041;-76
2021/07/24 02:47:54;;;;;;;15.18;10.70;;;;;;;16.28;85.70;98342.72;5066732;28;20103;-77
2021/07/24 02:50:21;;;;;;;19.83;10.82;;;;;;;16.46;85.52;98362.84;5058155;28;20105;-77
2021/07/24 02:52:47;;;;;;;16.15;10.48;;;;;;;16.44;86.00;98359.53;5068005;28;20041;-77
2021/07/24 02:55:15;;;;;;;14.02;9.82;;;;;;;16.35;85.63;98344.50;5059479;28;20048;-76
2021/07/24 02:57:41;;;;;;;19.63;10.80;;;;;;;16.38;86.06;98360.47;5060457;28;20056;-77
2021/07/24 03:00:09;;;;;;;16.63;9.90;;;;;;;16.17;87.07;98338.13;5058517;28;20427;-77
2021/07/24 03:02:36;;;;;;;14.43;9.70;;;;;;;16.17;86.55;98342.75;5064445;28;20052;-76
2021/07/24 03:05:04;;;;;;;14.52;9.77;;;;;;;16.22;86.74;98353.84;5060019;28;20057;-76
2021/07/24 03:07:31;;;;;;;14.65;10.55;;;;;;;16.27;86.58;98357.53;5053285;28;20059;-77
2021/07/24 03:09:58;;;;;;;19.75;10.55;;;;;;;16.32;86.92;98367.78;5064169;28;20056;-77
2021/07/24 03:12:25;;;;;;;16.50;10.43;;;;;;;16.19;87.83;98368.03;5057681;28;20048;-77
2021/07/24 03:14:53;;;;;;;15.68;10.45;;;;;;;16.18;88.31;98363.63;5053757;28;20060;-76
2021/07/24 03:17:20;;;;;;;16.65;10.60;;;;;;;16.15;88.70;98364.09;5065995;28;20064;-76
2021/07/24 03:19:47;;;;;;;15.02;10.65;;;;;;;16.25;88.17;98356.94;5063850;28;20525;-76
2021/07/24 03:22:15;;;;;;;15.07;10.45;;;;;;;16.17;88.41;98354.56;5066130;28;20048;-77
2021/07/24 03:24:42;;;;;;;17.00;10.27;;;;;;;16.17;88.64;98368.28;5067650;28;20080;-77
2021/07/24 03:27:09;;;;;;;13.93;9.82;;;;;;;16.41;87.42;98369.06;5053443;28;20045;-76
2021/07/24 03:29:35;;;;;;;15.70;9.20;;;;;;;16.45;86.83;98337.34;5052019;28;20045;-76
2021/07/24 03:32:02;;;;;;;16.05;10.77;;;;;;;16.39;86.98;98332.81;5065134;28;20049;-77
2021/07/24 03:34:29;;;;;;;14.57;10.57;;;;;;;16.24;87.77;98341.56;5063040;28;20489;-77
2021/07/24 03:36:55;;;;;;;15.57;10.02;;;;;;;16.11;88.63;98347.31;5065486;28;20052;-76
2021/07/24 03:39:24;;;;;;;17.90;11.27;;;;;;;16.04;88.69;98330.97;5051559;28;20098;-76
2021/07/24 03:41:51;;;;;;;16.42;10.18;;;;;;;16.15;88.30;98331.22;5051700;28;20566;-76
2021/07/24 03:44:17;;;;;;;19.52;10.85;;;;;;;16.07;88.71;98330.50;5057829;28;20098;-77
2021/07/24 03:46:44;;;;;;;16.67;9.30;;;;;;;16.26;88.04;98350.38;5062360;28;20045;-76
2021/07/24 03:49:11;;;;;;;15.93;9.85;;;;;;;16.27;87.82;98343.84;5052473;28;20320;-76
2021/07/24 03:51:39;;;;;;;18.63;10.48;;;;;;;16.46;87.62;98357.38;5061101;28;20110;-76
2021/07/24 03:54:06;;;;;;;21.15;10.30;;;;;;;16.50;86.86;98346.72;5070946;28;20048;-76
2021/07/24 03:56:34;;;;;;;16.65;10.48;;;;;;;16.56;86.96;98364.97;5065025;28;20040;-76
2021/07/24 03:59:01;;;;;;;15.90;9.80;;;;;;;16.51;87.53;98365.69;5055513;28;20080;-76
2021/07/24 04:01:29;;;;;;;15.40;9.95;;;;;;;16.54;87.75;98365.19;5062958;28;20053;-76
2021/07/24 04:03:56;;;;;;;17.10;10.82;;;;;;;16.55;88.12;98363.31;5072483;28;20053;-76
2021/07/24 04:06:25;;;;;;;14.25;10.20;;;;;;;16.33;88.64;98358.47;5064670;28;20535;-76
2021/07/24 04:08:54;;;;;;;15.40;10.37;;;;;;;16.45;87.92;98372.16;5066700;28;20057;-76
2021/07/24 04:11:22;;;;;;;15.80;10.40;;;;;;;16.61;86.98;98363.16;5065215;28;20049;-76
2021/07/24 04:13:50;;;;;;;18.08;10.95;;;;;;;16.74;87.43;98366.69;5064117;28;20056;-76
2021/07/24 04:16:18;;;;;;;17.63;9.93;;;;;;;16.80;88.12;98358.31;5054989;28;20052;-77
2021/07/24 04:18:45;;;;;;;15.15;10.25;;;;;;;16.84;87.59;98346.84;5063971;28;20052;-76
2021/07/24 04:21:12;;;;;;;21.48;10.75;;;;;;;16.87;87.31;98371.91;5065657;28;20053;-76
2021/07/24 04:23:40;;;;;;;15.98;10.75;;;;;;;16.95;87.01;98362.44;5058964;28;20076;-76
2021/07/24 04:26:07;;;;;;;16.52;9.57;;;;;;;17.08;86.17;98366.81;5070192;28;20450;-76
2021/07/24 04:28:33;;;;;;;14.85;10.88;;;;;;;17.15;86.15;98353.78;5065471;28;20059;-76
2021/07/24 04:31:01;;;;;;;19.38;10.60;;;;;;;17.06;86.80;98369.81;5068866;28;20056;-76
2021/07/24 04:33:28;;;;;;;16.00;9.55;;;;;;;16.85;87.39;98375.97;5066818;28;20048;-76
2021/07/24 04:35:55;;;;;;;17.05;10.00;;;;;;;16.78;87.51;98403.56;5053233;28;20118;-76
2021/07/24 04:38:22;;;;;;;15.98;10.75;;;;;;;16.51;88.63;98401.34;5053877;28;20057;-76
2021/07/24 04:40:48;;;;;;;20.25;11.15;;;;;;;16.79;88.88;98427.19;5053587;28;20238;-76
2021/07/24 04:43:15;;;;;;;17.63;11.38;;;;;;;16.84;88.72;98419.03;5053635;28;20041;-76
2021/07/24 04:45:42;;;;;;;19.05;11.48;;;;;;;16.80;89.44;98426.94;5053667;28;20052;-76
2021/07/24 04:48:11;;;;;;;18.15;10.98;;;;;;;16.73;89.76;98420.75;5053157;28;20095;-76
2021/07/24 04:50:41;;;;;;;16.38;10.52;;;;;;;16.83;89.23;98414.66;5053811;28;20045;-76
2021/07/24 04:53:09;;;;;;;14.77;10.40;;;;;;;16.95;88.04;98420.97;5052975;28;20053;-76
2021/07/24 04:55:37;;;;;;;18.02;10.40;;;;;;;16.92;87.88;98431.56;5054015;28;20107;-76
2021/07/24 04:58:06;;;;;;;17.23;10.75;;;;;;;16.84;89.73;98418.22;5052668;28;20056;-76
2021/07/24 05:00:34;;;;;;;18.10;11.03;;;;;;;16.94;88.63;98415.72;5053589;28;20047;-76
2021/07/24 05:03:00;;;;;;;16.92;11.73;;;;;;;16.90;88.75;98418.09;5055981;28;20048;-77
2021/07/24 05:05:29;;;;;;;18.02;11.93;;;;;;;16.89;89.74;98421.09;5060267;28;20090;-76
2021/07/24 05:07:56;;;;;;;21.40;11.43;;;;;;;16.96;89.96;98439.06;5061659;28;20111;-76
2021/07/24 05:10:22;;;;;;;20.60;11.80;;;;;;;16.83;90.49;98444.84;5056062;28;20045;-76
2021/07/24 05:12:49;;;;;;;20.92;11.48;;;;;;;16.96;88.49;98450.06;5055162;28;20122;-77
2021/07/24 05:15:16;;;;;;;18.10;11.52;;;;;;;16.95;88.36;98428.34;5054605;28;20131;-76
2021/07/24 05:17:43;;;;;;;19.88;11.50;;;;;;;16.96;88.96;98419.03;5062947;28;20056;-76
2021/07/24 05:20:10;;;;;;;15.68;10.20;;;;;;;17.29;88.20;98437.50;5067815;28;20041;-76
2021/07/24 05:22:38;;;;;;;16.98;11.50;;;;;;;17.31;87.17;98437.25;5053261;28;20543;-76
2021/07/24 05:25:05;;;;;;;16.92;10.10;;;;;;;17.38;88.17;98417.91;5059960;28;20098;-76
2021/07/24 05:27:32;;;;;;;22.15;10.82;;;;;;;17.55;86.83;98428.91;5072851;28;20048;-77
2021/07/24 05:29:59;;;;;;;15.70;10.20;;;;;;;17.75;86.73;98428.41;5060596;28;20048;-77
2021/07/24 05:32:26;;;;;;;21.65;10.82;;;;;;;17.73;86.36;98406.66;5065872;28;20052;-77
2021/07/24 05:34:53;;;;;;;14.50;10.55;;;;;;;17.94;86.12;98418.84;5064381;28;20052;-76
2021/07/24 05:37:19;;;;;;;16.08;10.82;;;;;;;17.90;86.61;98411.34;5053824;28;20130;-77
2021/07/24 05:39:48;;;;;;;21.13;10.95;;;;;;;17.87;85.39;98426.41;5071564;28;20512;-77
2021/07/24 05:42:14;;;;;;;23.35;10.65;;;;;;;17.89;85.15;98442.66;5053253;28;20045;-77
2021/07/24 05:44:41;;;;;;;16.63;11.00;;;;;;;17.93;85.04;98443.84;5059645;28;20256;-77
2021/07/24 05:47:08;;;;;;;15.43;11.27;;;;;;;18.15;84.77;98453.00;5062127;28;20045;-77
2021/07/24 05:49:37;;;;;;;17.23;11.73;;;;;;;18.31;83.56;98462.31;5061715;28;20535;-77
2021/07/24 05:52:08;;;;;;;19.10;11.87;;;;;;;18.55;83.79;98443.66;5061821;28;20501;-77
2021/07/24 05:54:35;;;;;;;22.98;12.88;;;;;;;18.48;82.03;98437.50;5062080;28;20061;-78
2021/07/24 05:57:04;;;;;;;18.40;12.00;;;;;;;18.78;80.92;98440.94;5065787;28;20065;-78
2021/07/24 05:59:32;;;;;;;18.40;12.45;;;;;;;18.83;82.92;98435.47;5053278;28;20052;-78
2021/07/24 06:01:58;;;;;;;17.80;11.23;;;;;;;18.83;81.18;98438.22;5052651;28;20051;-78
2021/07/24 06:04:25;;;;;;;16.02;10.25;;;;;;;18.94;80.69;98448.31;5052648;28;20049;-78
2021/07/24 06:06:52;;;;;;;19.08;11.40;;;;;;;19.34;80.46;98466.38;5051993;28;20045;-78
2021/07/24 06:09:19;;;;;;;31.02;12.43;;;;;;;19.42;80.44;98465.94;5052220;28;20065;-78
2021/07/24 06:11:45;;;;;;;16.58;11.02;;;;;;;19.54;79.51;98470.44;5051975;28;20045;-78
2021/07/24 06:14:15;;;;;;;16.52;11.25;;;;;;;19.55;80.79;98472.94;5050436;28;20045;-78
2021/07/24 06:16:42;;;;;;;13.90;10.57;;;;;;;19.47;80.02;98472.59;5071797;28;20093;-78
2021/07/24 06:19:09;;;;;;;14.43;9.77;;;;;;;19.48;79.48;98477.00;5063731;28;20049;-78
2021/07/24 06:21:35;;;;;;;17.08;11.70;;;;;;;19.68;79.75;98466.19;5061600;28;20507;-78
2021/07/24 06:24:02;;;;;;;19.20;11.15;;;;;;;19.60;78.39;98483.19;5053258;28;20049;-78
2021/07/24 06:26:30;;;;;;;22.65;12.27;;;;;;;19.60;76.17;98472.16;5069421;28;20055;-78
2021/07/24 06:28:57;;;;;;;17.75;11.27;;;;;;;19.82;76.86;98482.34;5062202;28;20052;-78
2021/07/24 06:31:29;;;;;;;20.33;12.38;;;;;;;19.85;75.93;98482.63;5062007;28;20045;-78
2021/07/24 06:33:57;;;;;;;19.58;11.32;;;;;;;19.91;76.42;98498.13;5052813;28;20102;-78
2021/07/24 06:36:24;;;;;;;15.80;10.95;;;;;;;19.98;75.83;98497.94;5057905;28;20048;-78
2021/07/24 06:38:52;;;;;;;16.25;10.85;;;;;;;19.78;78.16;98502.16;5068880;28;20041;-78
2021/07/24 06:41:18;;;;;;;16.92;10.80;;;;;;;19.66;78.94;98508.91;5059844;28;20052;-78
2021/07/24 06:43:45;;;;;;;19.92;11.05;;;;;;;19.54;78.68;98539.38;5051987;28;20589;-78
2021/07/24 06:46:13;;;;;;;16.77;11.13;;;;;;;19.66;79.00;98540.06;5060934;28;20114;-78
2021/07/24 06:48:41;;;;;;;18.75;10.93;;;;;;;19.61;78.09;98531.72;5066362;28;20048;-78
2021/07/24 06:51:08;;;;;;;15.30;10.70;;;;;;;19.67;78.18;98518.84;5053739;28;20049;-78
2021/07/24 06:53:36;;;;;;;18.73;10.88;;;;;;;19.72;76.52;98549.22;5062873;28;20052;-78
2021/07/24 06:56:03;;;;;;;17.75;10.50;;;;;;;19.75;77.54;98527.47;5071496;28;20053;-78
2021/07/24 06:58:34;;;;;;;19.63;10.48;;;;;;;19.59;77.57;98564.25;5063227;28;20094;-78
2021/07/24 07:01:01;;;;;;;16.42;9.52;;;;;;;19.34;79.21;98543.56;5051756;28;20052;-77
2021/07/24 07:03:28;;;;;;;16.75;10.80;;;;;;;19.61;78.05;98545.50;5050990;28;20049;-77
2021/07/24 07:05:56;;;;;;;14.90;10.65;;;;;;;19.77;76.50;98535.50;5052465;28;20067;-78
2021/07/24 07:08:23;;;;;;;14.80;10.07;;;;;;;19.88;77.12;98506.94;5052632;28;20045;-78
2021/07/24 07:10:50;;;;;;;18.45;11.27;;;;;;;20.05;76.56;98481.16;5051684;28;20045;-78
2021/07/24 07:13:17;;;;;;;18.33;11.18;;;;;;;20.11;75.11;98464.38;5051372;28;20044;-78
2021/07/24 07:15:44;;;;;;;15.93;10.23;;;;;;;20.08;75.23;98462.16;5051875;28;20049;-78
2021/07/24 07:18:11;;;;;;;16.00;10.77;;;;;;;20.20;75.01;98467.47;5067233;28;20580;-78
2021/07/24 07:20:38;;;;;;;20.85;11.45;;;;;;;20.29;74.21;98501.78;5060496;28;20473;-78
2021/07/24 07:23:06;;;;;;;25.00;11.52;;;;;;;20.20;74.57;98497.00;5070575;28;20048;-78
2021/07/24 07:25:33;;;;;;;17.33;9.90;;;;;;;20.33;74.90;98502.06;5067221;28;20090;-78
2021/07/24 07:27:59;;;;;;;17.83;10.05;;;;;;;20.47;74.22;98499.66;5070768;28;20049;-79
2021/07/24 07:30:29;;;;;;;15.00;10.02;;;;;;;20.61;74.21;98489.81;5072109;28;20458;-78
2021/07/24 07:32:55;;;;;;;13.43;9.27;;;;;;;20.56;75.15;98464.09;5073603;28;20056;-78
2021/07/24 07:35:22;;;;;;;13.82;10.07;;;;;;;20.59;74.20;98475.44;5070057;28;20052;-78
2021/07/24 07:37:51;;;;;;;14.48;9.77;;;;;;;20.52;74.98;98478.44;5074114;28;20055;-78
2021/07/24 07:40:19;;;;;;;17.00;10.38;;;;;;;20.70;75.91;98495.72;5067406;28;20095;-79
2021/07/24 07:42:46;;;;;;;16.30;9.98;;;;;;;20.91;76.52;98509.59;5073831;28;20565;-78
2021/07/24 07:45:13;;;;;;;14.75;10.75;;;;;;;20.92;74.64;98498.28;5067310;28;20060;-78
2021/07/24 07:47:40;;;;;;;16.83;9.73;;;;;;;20.96;76.11;98515.19;5066845;28;20132;-78
2021/07/24 07:50:08;;;;;;;16.40;9.93;;;;;;;21.00;75.41;98516.28;5069050;28;20106;-78
2021/07/24 07:52:35;;;;;;;15.80;9.15;;;;;;;20.90;75.92;98506.03;5074593;28;20048;-78
2021/07/24 07:55:03;;;;;;;16.50;10.75;;;;;;;21.01;75.24;98521.53;5068822;28;20079;-78
2021/07/24 07:57:31;;;;;;;20.92;10.27;;;;;;;20.83;75.36;98505.44;5074414;28;20109;-78
2021/07/24 07:59:58;;;;;;;16.05;10.82;;;;;;;20.83;75.43;98528.34;5062979;28;20059;-78
2021/07/24 08:02:25;;;;;;;17.30;9.85;;;;;;;20.92;75.52;98539.72;5054895;28;20094;-78
2021/07/24 08:04:52;;;;;;;15.00;10.00;;;;;;;20.85;74.42;98531.69;5068046;28;20500;-78
2021/07/24 08:07:19;;;;;;;17.30;10.70;;;;;;;21.04;75.47;98545.03;5055160;28;20052;-79
2021/07/24 08:09:46;;;;;;;18.42;9.98;;;;;;;20.94;75.14;98522.88;5070161;28;20477;-78
2021/07/24 08:12:13;;;;;;;14.60;10.65;;;;;;;20.98;74.90;98538.66;5059089;28;20143;-78
2021/07/24 08:14:41;;;;;;;17.75;11.63;;;;;;;20.93;78.55;98543.34;5072510;28;20123;-78
2021/07/24 08:17:08;;;;;;;15.15;10.10;;;;;;;20.82;78.61;98539.66;5071843;28;20045;-78
2021/07/24 08:19:35;;;;;;;16.65;11.10;;;;;;;21.17;76.78;98557.56;5071889;28;20048;-78
2021/07/24 08:22:02;;;;;;;17.77;10.63;;;;;;;21.28;76.11;98550.13;5064322;28;20045;-78
2021/07/24 08:24:29;;;;;;;16.92;10.68;;;;;;;21.32;75.53;98551.28;5059080;28;20059;-78
2021/07/24 08:26:56;;;;;;;15.38;9.65;;;;;;;21.28;74.08;98539.09;5061967;28;20565;-78
2021/07/24 08:29:23;;;;;;;17.20;9.63;;;;;;;21.43;74.48;98541.91;5071537;28;20106;-78
2021/07/24 08:31:58;;;;;;;16.80;10.35;;;;;;;21.25;74.70;98526.63;5073704;28;20048;-79
2021/07/24 08:34:25;;;;;;;20.40;10.60;;;;;;;21.04;75.05;98493.38;5059730;28;20052;-78
2021/07/24 08:36:52;;;;;;;19.92;10.90;;;;;;;20.92;73.90;98481.72;5068623;28;20137;-78
2021/07/24 08:39:19;;;;;;;18.02;11.30;;;;;;;20.94;74.84;98471.25;5063851;28;20045;-79
2021/07/24 08:41:46;;;;;;;22.63;11.60;;;;;;;20.96;76.49;98440.59;5058136;28;20130;-80
2021/07/24 08:44:13;;;;;;;18.02;11.32;;;;;;;21.11;78.17;98431.53;5058484;28;20106;-79
2021/07/24 08:46:40;;;;;;;16.98;10.18;;;;;;;21.10;77.54;98405.78;5063600;28;20048;-80
2021/07/24 08:49:08;;;;;;;14.15;10.23;;;;;;;21.07;77.99;98403.56;5073058;28;20040;-79
2021/07/24 08:51:37;;;;;;;17.75;11.63;;;;;;;21.10;77.68;98391.16;5053112;28;20051;-79
2021/07/24 08:54:06;;;;;;;22.30;10.88;;;;;;;21.27;77.38;98380.66;5053151;28;20554;-79
2021/07/24 08:56:41;;;;;;;13.25;9.85;;;;;;;21.50;76.92;98382.13;5053522;28;20084;-78
2021/07/24 08:59:11;;;;;;;19.90;11.82;;;;;;;21.68;75.46;98375.22;5059615;28;20056;-78
2021/07/24 09:01:41;;;;;;;20.52;11.30;;;;;;;21.95;75.27;98370.47;5059267;28;20480;-78
2021/07/24 09:04:09;;;;;;;18.73;11.38;;;;;;;22.32;74.78;98374.88;5066513;28;20049;-78
2021/07/24 09:06:36;;;;;;;19.00;10.82;;;;;;;22.41;73.18;98360.16;5062340;28;20048;-79
2021/07/24 09:09:05;;;;;;;16.00;10.95;;;;;;;22.60;72.12;98378.94;5053981;28;20059;-79
2021/07/24 09:11:32;;;;;;;16.15;10.40;;;;;;;22.78;71.73;98367.22;5057473;28;20045;-78
2021/07/24 09:14:00;;;;;;;19.55;10.52;;;;;;;23.04;71.63;98377.34;5056020;28;20052;-78
2021/07/24 09:16:28;;;;;;;14.60;9.77;;;;;;;23.13;70.42;98375.66;5072958;28;20094;-78
2021/07/24 09:18:58;;;;;;;15.85;9.43;;;;;;;23.42;70.19;98374.91;5057238;28;20106;-78
2021/07/24 09:21:33;;;;;;;16.20;9.75;;;;;;;23.59;67.67;98358.69;5063719;28;20045;-79
2021/07/24 09:24:17;;;;;;;17.02;9.98;;;;;;;23.61;68.26;98356.44;5057280;28;20102;-78
2021/07/24 09:26:44;;;;;;;12.63;9.55;;;;;;;24.02;66.32;98364.41;5052579;28;20435;-79
2021/07/24 09:29:15;;;;;;;16.98;9.55;;;;;;;24.31;64.17;98359.94;5052553;28;20048;-79
2021/07/24 09:31:42;;;;;;;32.75;14.32;;;;;;;24.76;64.08;98391.09;5052044;28;20451;-79
2021/07/24 09:34:10;;;;;;;15.38;9.05;;;;;;;25.01;63.15;98372.44;5052413;28;20048;-79
2021/07/24 09:36:43;;;;;;;13.63;9.05;;;;;;;24.88;60.24;98368.44;5052746;28;20094;-79
2021/07/24 09:39:16;;;;;;;16.08;9.23;;;;;;;24.80;61.55;98374.69;5059641;28;20446;-78
2021/07/24 09:41:54;;;;;;;16.70;8.82;;;;;;;25.16;59.91;98402.81;5063028;28;20049;-79
2021/07/24 09:44:33;;;;;;;15.27;9.57;;;;;;;25.41;60.17;98407.22;5067817;28;20069;-78
2021/07/24 09:47:01;;;;;;;13.77;8.50;;;;;;;25.38;57.08;98404.19;5056384;28;20476;-78
2021/07/24 09:49:44;;;;;;;14.80;8.82;;;;;;;25.94;58.85;98389.38;5058063;28;20509;-78
2021/07/24 09:52:18;;;;;;;16.58;8.82;;;;;;;26.28;57.48;98388.22;5069401;28;20547;-79
2021/07/24 09:54:45;;;;;;;13.07;8.80;;;;;;;26.29;58.32;98394.66;5062057;28;20106;-78
2021/07/24 09:57:33;;;;;;;16.13;9.50;;;;;;;26.24;56.89;98395.56;5053403;28;20049;-79
2021/07/24 10:00:24;;;;;;;11.95;8.93;;;;;;;26.42;54.82;98407.78;5065158;28;20230;-79
2021/07/24 10:03:01;;;;;;;19.35;9.55;;;;;;;26.75;55.36;98404.06;5070182;28;20044;-79
2021/07/24 10:05:42;;;;;;;13.85;8.32;;;;;;;26.97;54.62;98401.38;5068016;28;20045;-79
2021/07/24 10:08:14;;;;;;;11.98;8.00;;;;;;;26.94;54.43;98403.97;5066913;28;20052;-79
2021/07/24 10:10:45;;;;;;;12.02;8.13;;;;;;;26.95;55.13;98389.72;5053725;28;20049;-79
2021/07/24 10:13:16;;;;;;;15.23;9.45;;;;;;;27.08;57.01;98382.44;5053104;28;20059;-79
2021/07/24 10:15:46;;;;;;;15.75;8.35;;;;;;;27.52;56.27;98383.69;5054313;28;20049;-79
2021/07/24 10:18:13;;;;;;;;;;;;;;;27.76;53.60;98388.13;5053160;28;20052;-79
2021/07/24 10:20:45;;;;;;;13.45;8.15;;;;;;;27.92;54.09;98368.22;5061868;28;19924;-79
2021/07/24 10:23:14;;;;;;;11.98;8.15;;;;;;;28.22;55.08;98384.19;5056682;28;20044;-78
2021/07/24 11:41:16;;;;;;;12.57;7.35;;;;;;;27.50;48.32;98355.25;5130731;27;20173;-77
2021/07/24 11:43:43;;;;;;;11.15;8.27;;;;;;;27.69;50.60;98343.91;5111968;28;20101;-76
2021/07/24 11:46:11;;;;;;;14.60;7.45;;;;;;;28.11;47.59;98329.72;5129849;27;20055;-77
2021/07/24 11:48:41;;;;;;;13.02;7.50;;;;;;;28.53;45.12;98319.03;5120231;27;20126;-79
2021/07/24 11:51:09;;;;;;;17.77;7.05;;;;;;;28.71;45.53;98319.09;5128500;27;20051;-76
2021/07/24 11:53:37;;;;;;;17.52;7.28;;;;;;;28.57;47.73;98328.41;5122989;27;20043;-77
2021/07/24 11:56:09;;;;;;;14.82;6.43;;;;;;;28.29;48.48;98319.47;5128823;27;20058;-77
2021/07/24 11:58:38;;;;;;;11.57;6.95;;;;;;;28.11;47.39;98312.97;5129820;28;20077;-77
2021/07/24 12:01:20;;;;;;;19.85;7.82;;;;;;;28.02;49.16;98315.72;5126132;28;20104;-79
2021/07/24 12:04:05;;;;;;;14.40;6.97;;;;;;;27.99;47.55;98321.94;5129962;28;20075;-78
2021/07/24 12:06:33;;;;;;;11.85;6.85;;;;;;;27.85;49.24;98318.38;5124783;28;20575;-78
2021/07/24 12:09:00;;;;;;;13.40;7.35;;;;;;;27.85;48.12;98313.63;5128596;27;20456;-77
2021/07/24 12:11:27;;;;;;;14.07;7.15;;;;;;;27.59;49.26;98299.50;5119126;28;20050;-78
2021/07/24 12:14:04;;;;;;;13.73;7.40;;;;;;;27.57;48.24;98309.38;5125353;28;20047;-78
2021/07/24 12:16:35;;;;;;;14.20;7.10;;;;;;;27.50;48.71;98287.47;5129207;28;20047;-79
2021/07/24 12:19:11;;;;;;;14.68;7.15;;;;;;;27.75;50.51;98307.47;5126548;28;20104;-79
2021/07/24 12:21:38;;;;;;;13.07;6.80;;;;;;;28.04;48.40;98307.84;5128952;28;20051;-78
2021/07/24 12:24:08;;;;;;;13.45;6.55;;;;;;;28.49;48.40;98287.28;5128676;28;20066;-78
2021/07/24 12:26:37;;;;;;;9.50;6.45;;;;;;;29.19;47.77;98295.81;5128074;28;20043;-79
2021/07/24 12:29:23;;;;;;;10.45;6.15;;;;;;;29.60;45.35;98290.84;5128719;28;20487;-79
2021/07/24 12:31:52;;;;;;;11.80;6.60;;;;;;;29.89;43.67;98306.13;5126786;28;20151;-79
2021/07/24 12:34:20;;;;;;;12.93;6.03;;;;;;;30.07;43.07;98287.28;5116495;28;20039;-79
2021/07/24 12:36:51;;;;;;;12.52;5.68;;;;;;;30.09;42.29;98291.38;5124671;28;20482;-79
2021/07/24 12:39:19;;;;;;;9.07;5.53;;;;;;;30.04;41.19;98293.56;5128873;28;20096;-79
2021/07/24 12:41:57;;;;;;;9.60;5.80;;;;;;;29.63;41.82;98302.19;5127672;28;20460;-78
2021/07/24 12:44:26;;;;;;;17.95;5.80;;;;;;;29.29;44.99;98283.47;5128390;28;20058;-79
2021/07/24 12:47:12;;;;;;;12.27;6.18;;;;;;;29.24;44.31;98289.25;5126570;28;20047;-78